Terminal Aerodrome Forecast
Issued by NWS

Home | Current Version | Previous Version | Text Only | Print | Product List | Glossary On
Versions: 1 2 3 4 5 6 7 8 9 10 11 12 13 14 15 16 17 18 19
000
FTUS43 KIWX 291730
TAFSBN
TAF
KSBN 291730Z 2918/3018 10014G21KT P6SM SKC
     FM292100 08014KT P6SM BKN200
     FM300600 09014KT P6SM VCSH OVC090
     FM301400 09014G24KT 4SM SHRA BR OVC005
     FM301700 09013G23KT 3SM SHRA BR OVC008=

USA.gov is the U.S. government's official web portal to all federal, state and local government web resources and services.